Terminal Aerodrome Forecast
Issued by NWS

Home | Current Version | Previous Version | Text Only | Print | Product List | Glossary On
Versions: 1 2 3 4 5 6 7 8 9 10 11 12 13 14 15
000
FTUS46 KSGX 160500
TAFTRM
TAF
KTRM 160520Z 1606/1706 33008KT P6SM SKC
     FM161200 VRB04KT P6SM SKC
     FM162100 14009KT P6SM SKC
     FM170100 VRB04KT P6SM SKC=

USA.gov is the U.S. government's official web portal to all federal, state and local government web resources and services.